createdAt,value
2023-03-20T00:01:56.241Z,8.67
2023-03-20T00:04:23.051Z,8.67
2023-03-20T00:06:49.479Z,8.62
2023-03-20T00:09:16.051Z,8.60
2023-03-20T00:11:49.791Z,8.61
2023-03-20T00:14:19.036Z,8.58
2023-03-20T00:16:47.554Z,8.56
2023-03-20T00:19:23.091Z,8.50
2023-03-20T00:21:51.018Z,8.50
2023-03-20T00:24:17.750Z,8.52
2023-03-20T00:26:46.465Z,8.47
2023-03-20T00:29:27.654Z,8.47
2023-03-20T00:31:55.472Z,8.46
2023-03-20T00:34:25.696Z,8.45
2023-03-20T00:36:53.128Z,8.43
2023-03-20T00:39:20.316Z,8.40
2023-03-20T00:41:57.472Z,8.40
2023-03-20T00:44:32.521Z,8.42
2023-03-20T00:47:05.631Z,8.42
2023-03-20T00:49:34.385Z,8.40
2023-03-20T00:52:02.394Z,8.42
2023-03-20T00:54:29.263Z,8.41
2023-03-20T00:57:07.446Z,8.41
2023-03-20T00:59:37.896Z,8.42
2023-03-20T01:02:04.510Z,8.41
2023-03-20T01:04:42.189Z,8.44
2023-03-20T01:07:13.978Z,8.44
2023-03-20T01:09:40.579Z,8.44
2023-03-20T01:12:07.882Z,8.38
2023-03-20T01:14:34.900Z,8.39
2023-03-20T01:17:01.441Z,8.43
2023-03-20T01:19:27.896Z,8.44
2023-03-20T01:21:54.412Z,8.38
2023-03-20T01:24:21.239Z,8.39
2023-03-20T01:26:47.844Z,8.38
2023-03-20T01:29:21.801Z,8.39
2023-03-20T01:31:49.922Z,8.37
2023-03-20T01:34:16.893Z,8.37
2023-03-20T01:36:51.422Z,8.36
2023-03-20T01:39:19.201Z,8.37
2023-03-20T01:41:47.238Z,8.37
2023-03-20T01:44:30.535Z,8.33
2023-03-20T01:46:58.220Z,8.36
2023-03-20T01:49:24.651Z,8.33
2023-03-20T01:51:52.425Z,8.32
2023-03-20T01:54:33.672Z,8.32
2023-03-20T01:57:03.359Z,8.28
2023-03-20T01:59:35.668Z,8.27
2023-03-20T02:02:02.229Z,8.32
2023-03-20T02:04:34.465Z,8.32
2023-03-20T02:07:01.212Z,8.33
2023-03-20T02:09:27.701Z,8.34
2023-03-20T02:11:56.162Z,8.35
2023-03-20T02:14:23.508Z,8.26
2023-03-20T02:16:50.239Z,8.20
2023-03-20T02:19:29.542Z,8.20
2023-03-20T02:22:05.085Z,8.11
2023-03-20T02:24:51.734Z,8.13
2023-03-20T02:27:43.021Z,8.12
2023-03-20T02:30:24.327Z,8.09
2023-03-20T02:33:33.225Z,8.07
2023-03-20T02:36:37.578Z,8.06
2023-03-20T02:39:28.034Z,8.04
2023-03-20T02:42:13.635Z,8.02
2023-03-20T02:45:23.889Z,7.93
2023-03-20T02:48:10.163Z,7.87
2023-03-20T02:50:47.529Z,7.83
2023-03-20T02:53:17.097Z,7.85
2023-03-20T02:55:44.062Z,7.86
2023-03-20T02:58:25.942Z,7.82
2023-03-20T03:01:01.596Z,7.86
2023-03-20T03:03:34.356Z,7.93
2023-03-20T03:06:19.068Z,7.98
2023-03-20T03:08:55.804Z,8.05
2023-03-20T03:11:22.451Z,8.06
2023-03-20T03:13:52.977Z,8.08
2023-03-20T03:16:32.652Z,8.10
2023-03-20T03:19:07.996Z,8.09
2023-03-20T03:21:37.473Z,8.08
2023-03-20T03:24:04.384Z,8.08
2023-03-20T03:26:37.338Z,8.05
2023-03-20T03:29:11.670Z,8.01
2023-03-20T03:31:38.454Z,7.98
2023-03-20T03:34:05.262Z,7.98
2023-03-20T03:36:41.327Z,7.94
2023-03-20T03:39:16.573Z,7.93
2023-03-20T03:41:52.112Z,7.89
2023-03-20T03:44:45.200Z,7.88
2023-03-20T03:47:19.946Z,7.83
2023-03-20T03:49:52.309Z,7.83
2023-03-20T03:52:23.418Z,7.77
2023-03-20T03:54:56.208Z,7.79
2023-03-20T03:57:31.292Z,7.82
2023-03-20T03:59:59.958Z,7.83
2023-03-20T04:02:27.148Z,7.82
2023-03-20T04:04:55.151Z,7.78
2023-03-20T04:07:21.622Z,7.80
2023-03-20T04:09:48.142Z,7.82
2023-03-20T04:12:40.679Z,7.77
2023-03-20T04:15:07.922Z,7.79
2023-03-20T04:17:34.719Z,7.73
2023-03-20T04:20:01.446Z,7.65
2023-03-20T04:22:27.973Z,7.68
2023-03-20T04:24:54.448Z,7.74
2023-03-20T04:27:21.571Z,7.76
2023-03-20T04:29:48.080Z,7.76
2023-03-20T04:32:14.540Z,7.79
2023-03-20T04:34:41.257Z,7.78
2023-03-20T04:37:08.513Z,7.77
2023-03-20T04:39:36.780Z,7.75
2023-03-20T04:42:05.520Z,7.77
2023-03-20T04:44:32.143Z,7.74
2023-03-20T04:46:58.679Z,7.75
2023-03-20T04:49:25.094Z,7.62
2023-03-20T04:51:51.576Z,7.65
2023-03-20T04:54:18.017Z,7.69
2023-03-20T04:56:44.593Z,7.71
2023-03-20T04:59:11.007Z,7.68
2023-03-20T05:01:37.625Z,7.63
2023-03-20T05:04:04.224Z,7.61
2023-03-20T05:06:34.058Z,7.56
2023-03-20T05:09:00.982Z,7.57
2023-03-20T05:11:27.768Z,7.58
2023-03-20T05:13:54.715Z,7.55
2023-03-20T05:16:21.222Z,7.54
2023-03-20T05:18:48.127Z,7.49
2023-03-20T05:21:14.868Z,7.43
2023-03-20T05:23:41.310Z,7.33
2023-03-20T05:26:07.860Z,7.32
2023-03-20T05:28:34.337Z,7.34
2023-03-20T05:31:00.897Z,7.33
2023-03-20T05:33:27.437Z,7.37
2023-03-20T05:35:53.976Z,7.36
2023-03-20T05:38:22.771Z,7.31
2023-03-20T05:40:59.765Z,7.32
2023-03-20T05:43:28.108Z,7.34
2023-03-20T05:45:56.288Z,7.36
2023-03-20T05:48:23.950Z,7.39
2023-03-20T05:50:50.943Z,7.40
2023-03-20T05:53:17.461Z,7.40
2023-03-20T05:55:44.741Z,7.41
2023-03-20T05:58:12.130Z,7.40
2023-03-20T06:00:39.550Z,7.41
2023-03-20T06:03:06.962Z,7.42
2023-03-20T06:05:34.646Z,7.41
2023-03-20T06:08:01.670Z,7.39
2023-03-20T06:10:30.064Z,7.39
2023-03-20T06:12:57.693Z,7.39
2023-03-20T06:15:24.411Z,7.38
2023-03-20T06:17:50.872Z,7.39
2023-03-20T06:20:17.808Z,7.43
2023-03-20T06:22:44.906Z,7.42
2023-03-20T06:25:11.426Z,7.42
2023-03-20T06:27:38.089Z,7.33
2023-03-20T06:30:04.978Z,7.40
2023-03-20T06:32:32.320Z,7.42
2023-03-20T06:34:58.819Z,7.42
2023-03-20T06:37:25.637Z,7.43
2023-03-20T06:39:52.119Z,7.43
2023-03-20T06:42:18.650Z,7.40
2023-03-20T06:44:45.099Z,7.35
2023-03-20T06:47:11.566Z,7.33
2023-03-20T06:49:38.008Z,7.34
2023-03-20T06:52:04.993Z,7.38
2023-03-20T06:54:31.593Z,7.43
2023-03-20T06:56:58.123Z,7.52
2023-03-20T06:59:24.578Z,7.51
2023-03-20T07:01:51.041Z,7.56
2023-03-20T07:04:17.518Z,7.53
2023-03-20T07:06:44.140Z,7.48
2023-03-20T07:09:10.673Z,7.48
2023-03-20T07:11:37.139Z,7.52
2023-03-20T07:14:03.607Z,7.58
2023-03-20T07:16:30.108Z,7.61
2023-03-20T07:18:56.619Z,7.65
2023-03-20T07:21:23.283Z,7.64
2023-03-20T07:23:49.800Z,7.65
2023-03-20T07:26:16.942Z,7.67
2023-03-20T07:28:43.501Z,7.73
2023-03-20T07:31:19.913Z,7.76
2023-03-20T07:33:46.717Z,7.77
2023-03-20T07:36:15.373Z,7.72
2023-03-20T07:38:41.813Z,7.76
2023-03-20T07:41:08.530Z,7.74
2023-03-20T07:43:34.999Z,7.76
2023-03-20T07:46:07.356Z,7.75
2023-03-20T07:48:34.580Z,7.78
2023-03-20T07:51:01.044Z,7.80
2023-03-20T07:53:27.929Z,7.80
2023-03-20T07:55:54.402Z,7.82
2023-03-20T07:58:20.931Z,7.80
2023-03-20T08:00:47.417Z,7.86
2023-03-20T08:03:14.075Z,7.87
2023-03-20T08:05:40.880Z,7.86
2023-03-20T08:08:07.483Z,7.91
2023-03-20T08:10:34.075Z,7.92
2023-03-20T08:13:00.609Z,7.92
2023-03-20T08:15:27.098Z,7.94
2023-03-20T08:17:53.583Z,7.93
2023-03-20T08:20:20.188Z,8.01
2023-03-20T08:22:47.092Z,8.03
2023-03-20T08:25:13.654Z,8.04
2023-03-20T08:27:40.141Z,8.04
2023-03-20T08:30:07.227Z,7.99
2023-03-20T08:32:33.806Z,8.03
2023-03-20T08:35:00.342Z,8.07
2023-03-20T08:37:28.577Z,8.14
2023-03-20T08:39:55.147Z,8.24
2023-03-20T08:42:21.767Z,8.31
2023-03-20T08:44:48.337Z,8.43
2023-03-20T08:47:14.810Z,8.50
2023-03-20T08:49:41.330Z,8.44
2023-03-20T08:52:07.858Z,8.42
2023-03-20T08:54:34.457Z,8.45
2023-03-20T08:57:00.953Z,8.41
2023-03-20T08:59:27.483Z,8.43
2023-03-20T09:01:54.024Z,8.45
2023-03-20T09:04:20.528Z,8.46
2023-03-20T09:06:47.736Z,8.45
2023-03-20T09:09:15.881Z,8.42
2023-03-20T09:11:42.511Z,8.43
2023-03-20T09:14:08.956Z,8.41
2023-03-20T09:16:35.542Z,8.44
2023-03-20T09:19:02.116Z,8.45
2023-03-20T09:21:28.553Z,8.38
2023-03-20T09:23:55.042Z,8.36
2023-03-20T09:26:21.585Z,8.38
2023-03-20T09:28:48.056Z,8.38
2023-03-20T09:31:14.596Z,8.33
2023-03-20T09:33:41.257Z,8.33
2023-03-20T09:36:11.370Z,8.36
2023-03-20T09:38:38.112Z,8.44
2023-03-20T09:41:05.408Z,8.52
2023-03-20T09:43:53.254Z,8.57
2023-03-20T09:46:49.420Z,8.58
2023-03-20T09:49:46.544Z,8.61
2023-03-20T09:52:28.532Z,8.64
2023-03-20T09:54:58.495Z,8.66
2023-03-20T09:57:43.273Z,8.67
2023-03-20T10:00:17.411Z,8.67
2023-03-20T10:02:59.414Z,8.66
2023-03-20T10:05:25.820Z,8.68
2023-03-20T10:08:00.873Z,8.69
2023-03-20T10:10:42.648Z,8.69
2023-03-20T10:13:39.277Z,8.66
2023-03-20T10:16:28.379Z,8.69
2023-03-20T10:19:07.190Z,8.66
2023-03-20T10:21:46.056Z,8.66
2023-03-20T10:24:36.005Z,8.73
2023-03-20T10:27:10.358Z,8.69
2023-03-20T10:29:54.421Z,8.73
2023-03-20T10:32:34.951Z,8.67
2023-03-20T10:35:25.049Z,8.54
2023-03-20T10:38:04.809Z,8.56
2023-03-20T10:40:38.476Z,8.68
2023-03-20T10:43:21.363Z,8.73
2023-03-20T10:45:57.571Z,8.78
2023-03-20T10:48:33.826Z,8.79
2023-03-20T10:51:03.237Z,8.80
2023-03-20T10:53:37.283Z,8.80
2023-03-20T10:56:09.171Z,8.75
2023-03-20T10:58:40.500Z,8.70
2023-03-20T11:01:07.834Z,8.70
2023-03-20T11:03:39.549Z,8.60
2023-03-20T11:06:34.506Z,8.64
2023-03-20T11:09:17.000Z,8.66
2023-03-20T11:11:46.981Z,8.58
2023-03-20T11:14:22.976Z,8.56
2023-03-20T11:16:51.996Z,8.55
2023-03-20T11:19:21.310Z,8.48
2023-03-20T11:21:56.999Z,8.40
2023-03-20T11:24:36.922Z,8.26
2023-03-20T11:27:09.511Z,8.21
2023-03-20T11:29:37.002Z,8.20
2023-03-20T11:32:35.832Z,8.26
2023-03-20T11:35:20.488Z,8.19
2023-03-20T11:37:52.022Z,8.27
2023-03-20T11:40:22.930Z,8.31
2023-03-20T11:43:02.872Z,8.38
2023-03-20T11:45:36.834Z,8.51
2023-03-20T11:48:05.014Z,8.62
2023-03-20T11:50:35.227Z,8.54
2023-03-20T11:53:04.557Z,8.57
2023-03-20T11:55:33.886Z,8.58
2023-03-20T11:58:04.093Z,8.57
2023-03-20T12:00:38.428Z,8.57
2023-03-20T12:03:33.648Z,8.48
2023-03-20T12:06:00.735Z,8.45
2023-03-20T12:08:31.847Z,8.42
2023-03-20T12:11:26.580Z,8.37
2023-03-20T12:13:56.853Z,8.25
2023-03-20T12:16:25.676Z,8.08
2023-03-20T12:18:57.484Z,8.08
2023-03-20T12:21:36.055Z,8.08
2023-03-20T12:24:06.686Z,8.06
2023-03-20T12:26:48.326Z,8.03
2023-03-20T12:29:31.675Z,8.08
2023-03-20T12:32:08.713Z,8.10
2023-03-20T12:34:41.529Z,8.11
2023-03-20T12:37:12.168Z,8.12
2023-03-20T12:39:44.889Z,8.07
2023-03-20T12:42:36.376Z,8.14
2023-03-20T12:45:13.831Z,8.13
2023-03-20T12:48:02.169Z,8.37
2023-03-20T12:50:28.666Z,8.40
2023-03-20T12:53:16.680Z,8.41
2023-03-20T12:56:07.555Z,8.57
2023-03-20T12:58:44.184Z,8.43
2023-03-20T13:01:19.370Z,8.45
2023-03-20T13:03:52.658Z,8.54
2023-03-20T13:06:44.548Z,8.49
2023-03-20T13:09:25.764Z,8.47
2023-03-20T13:12:00.928Z,8.47
2023-03-20T13:14:27.314Z,8.53
2023-03-20T13:16:56.844Z,8.55
2023-03-20T13:19:23.319Z,8.50
2023-03-20T13:22:02.800Z,8.51
2023-03-20T13:24:49.739Z,8.60
2023-03-20T13:27:23.731Z,8.58
2023-03-20T13:29:53.717Z,8.64
2023-03-20T13:32:46.106Z,8.68
2023-03-20T13:35:44.708Z,8.70
2023-03-20T13:38:18.856Z,8.64
2023-03-20T13:40:49.328Z,8.70
2023-03-20T13:43:31.746Z,8.80
2023-03-20T13:46:14.691Z,8.97
2023-03-20T13:48:42.952Z,9.07
2023-03-20T13:51:34.660Z,9.05
2023-03-20T13:54:46.006Z,9.16
2023-03-20T13:57:33.640Z,9.22
2023-03-20T14:00:12.403Z,9.17
2023-03-20T14:03:07.511Z,9.16
2023-03-20T14:05:39.581Z,9.05
2023-03-20T14:08:38.423Z,9.04
2023-03-20T14:11:13.939Z,9.10
2023-03-20T14:13:47.599Z,9.13
2023-03-20T14:16:16.881Z,9.03
2023-03-20T14:18:45.850Z,9.01
2023-03-20T14:21:15.276Z,9.00
2023-03-20T14:23:50.523Z,8.96
2023-03-20T14:26:28.802Z,8.98
2023-03-20T14:28:58.123Z,8.98
2023-03-20T14:31:32.772Z,9.04
2023-03-20T14:34:24.619Z,9.08
2023-03-20T14:37:05.110Z,9.15
2023-03-20T14:40:00.635Z,9.19
2023-03-20T14:42:50.646Z,9.16
2023-03-20T14:45:17.126Z,9.21
2023-03-20T14:47:59.419Z,9.22
2023-03-20T14:50:47.930Z,9.21
2023-03-20T14:53:27.544Z,9.26
2023-03-20T14:55:57.042Z,9.31
2023-03-20T14:58:43.268Z,9.43
2023-03-20T15:01:24.698Z,9.45
2023-03-20T15:04:02.206Z,9.43
2023-03-20T15:06:29.571Z,9.39
2023-03-20T15:08:59.928Z,9.42
2023-03-20T15:11:26.987Z,9.44
2023-03-20T15:13:54.442Z,9.46
2023-03-20T15:16:30.121Z,9.47
2023-03-20T15:18:56.665Z,9.49
2023-03-20T15:21:38.935Z,9.50
2023-03-20T15:24:05.835Z,9.51
2023-03-20T15:26:34.912Z,9.53
2023-03-20T15:29:07.879Z,9.54
2023-03-20T15:31:38.385Z,9.51
2023-03-20T15:34:25.394Z,9.50
2023-03-20T15:36:55.987Z,9.50
2023-03-20T15:39:28.705Z,9.51
2023-03-20T15:41:56.867Z,9.53
2023-03-20T15:44:28.346Z,9.52
2023-03-20T15:47:04.077Z,9.61
2023-03-20T15:49:33.556Z,9.59
2023-03-20T15:52:05.584Z,9.59
2023-03-20T15:54:33.993Z,9.53
2023-03-20T15:57:02.454Z,9.52
2023-03-20T15:59:32.641Z,9.56
2023-03-20T16:02:00.863Z,9.58
2023-03-20T16:04:28.131Z,9.56
2023-03-20T16:06:58.281Z,9.57
2023-03-20T16:09:25.541Z,9.53
2023-03-20T16:11:58.621Z,9.52
2023-03-20T16:14:27.514Z,9.55
2023-03-20T16:16:56.086Z,9.54
2023-03-20T16:19:24.646Z,9.53
2023-03-20T16:21:54.626Z,9.57
2023-03-20T16:24:36.126Z,9.62
2023-03-20T16:27:07.956Z,9.65
2023-03-20T16:29:34.828Z,9.61
2023-03-20T16:32:20.976Z,9.56
2023-03-20T16:34:51.370Z,9.53
2023-03-20T16:37:48.895Z,9.51
2023-03-20T16:40:28.572Z,9.47
2023-03-20T16:42:57.221Z,9.47
2023-03-20T16:45:33.318Z,9.46
2023-03-20T16:48:23.283Z,9.42
2023-03-20T16:50:56.932Z,9.40
2023-03-20T16:53:24.900Z,9.38
2023-03-20T16:55:54.769Z,9.38
2023-03-20T16:58:24.017Z,9.38
2023-03-20T17:01:06.133Z,9.38
2023-03-20T17:03:48.124Z,9.41
2023-03-20T17:06:23.746Z,9.39
2023-03-20T17:08:53.269Z,9.39
2023-03-20T17:11:29.668Z,9.39
2023-03-20T17:13:56.164Z,9.39
2023-03-20T17:16:24.320Z,9.38
2023-03-20T17:19:01.195Z,9.37
2023-03-20T17:21:28.204Z,9.38
2023-03-20T17:23:54.687Z,9.35
2023-03-20T17:26:21.472Z,9.35
2023-03-20T17:28:47.932Z,9.37
2023-03-20T17:31:16.395Z,9.35
2023-03-20T17:33:45.126Z,9.34
2023-03-20T17:36:24.792Z,9.35
2023-03-20T17:38:51.291Z,9.35
2023-03-20T17:41:19.501Z,9.34
2023-03-20T17:43:46.382Z,9.33
2023-03-20T17:46:26.542Z,9.33
2023-03-20T17:48:58.617Z,9.32
2023-03-20T17:51:25.477Z,9.32
2023-03-20T17:53:57.676Z,9.31
2023-03-20T17:56:32.593Z,9.32
2023-03-20T17:59:02.867Z,9.33
2023-03-20T18:01:32.632Z,9.34
2023-03-20T18:03:59.487Z,9.32
2023-03-20T18:06:31.809Z,9.29
2023-03-20T18:08:59.519Z,9.31
2023-03-20T18:11:27.314Z,9.32
2023-03-20T18:13:53.805Z,9.32
2023-03-20T18:16:25.436Z,9.35
2023-03-20T18:18:52.634Z,9.40
2023-03-20T18:21:19.628Z,9.41
2023-03-20T18:23:46.521Z,9.38
2023-03-20T18:26:25.172Z,9.37
2023-03-20T18:28:53.000Z,9.34
2023-03-20T18:31:20.612Z,9.32
2023-03-20T18:33:52.974Z,9.30
2023-03-20T18:36:22.585Z,9.31
2023-03-20T18:38:50.057Z,9.34
2023-03-20T18:41:16.645Z,9.33
2023-03-20T18:43:43.475Z,9.31
2023-03-20T18:46:14.999Z,9.34
2023-03-20T18:48:42.059Z,9.32
2023-03-20T18:51:08.587Z,9.33
2023-03-20T18:53:35.143Z,9.31
2023-03-20T18:56:01.714Z,9.28
2023-03-20T18:58:29.790Z,9.26
2023-03-20T19:00:59.595Z,9.25
2023-03-20T19:03:28.524Z,9.25
2023-03-20T19:05:57.799Z,9.24
2023-03-20T19:08:24.373Z,9.22
2023-03-20T19:10:51.585Z,9.21
2023-03-20T19:13:20.758Z,9.20
2023-03-20T19:15:47.615Z,9.19
2023-03-20T19:18:26.346Z,9.19
2023-03-20T19:20:55.656Z,9.17
2023-03-20T19:23:24.264Z,9.17
2023-03-20T19:25:53.096Z,9.18
2023-03-20T19:28:37.831Z,9.18
2023-03-20T19:31:06.500Z,9.19
2023-03-20T19:33:33.348Z,9.18
2023-03-20T19:36:03.231Z,9.18
2023-03-20T19:38:31.890Z,9.18
2023-03-20T19:40:59.833Z,9.17
2023-03-20T19:43:28.838Z,9.16
2023-03-20T19:45:58.769Z,9.16
2023-03-20T19:48:46.477Z,9.11
2023-03-20T19:51:16.878Z,9.12
2023-03-20T19:53:44.460Z,9.10
2023-03-20T19:56:11.800Z,9.12
2023-03-20T19:58:39.547Z,9.11
2023-03-20T20:01:14.258Z,9.10
2023-03-20T20:03:41.577Z,9.09
2023-03-20T20:06:08.234Z,9.09
2023-03-20T20:08:46.839Z,9.11
2023-03-20T20:11:15.556Z,9.12
2023-03-20T20:14:03.797Z,9.13
2023-03-20T20:16:29.562Z,9.15
2023-03-20T20:18:56.096Z,9.14
2023-03-20T20:24:09.177Z,9.16
2023-03-20T20:26:40.479Z,9.15
2023-03-20T20:29:11.672Z,9.12
2023-03-20T20:31:38.223Z,9.11
2023-03-20T20:34:58.450Z,9.13
2023-03-20T20:37:42.477Z,9.13
2023-03-20T20:39:37.918Z,9.13
2023-03-20T20:42:05.309Z,9.13
2023-03-20T20:44:31.793Z,9.13
2023-03-20T20:46:58.374Z,9.10
2023-03-20T20:49:24.883Z,9.11
2023-03-20T20:51:51.336Z,9.13
2023-03-20T20:54:17.907Z,9.13
2023-03-20T20:56:44.522Z,9.12
2023-03-20T20:59:11.243Z,9.12
2023-03-20T21:01:37.756Z,9.12
2023-03-20T21:04:04.305Z,9.11
2023-03-20T21:06:59.693Z,9.12
2023-03-20T21:09:17.384Z,9.14
2023-03-20T21:11:43.882Z,9.12
2023-03-20T21:14:10.745Z,9.14
2023-03-20T21:16:37.262Z,9.17
2023-03-20T21:19:03.788Z,9.16
2023-03-20T21:21:30.500Z,9.19
2023-03-20T21:23:57.070Z,9.16
2023-03-20T21:26:23.781Z,9.15
2023-03-20T21:28:51.433Z,9.15
2023-03-20T21:31:27.284Z,9.14
2023-03-20T21:33:54.245Z,9.15
2023-03-20T21:36:21.686Z,9.14
2023-03-20T21:41:37.761Z,9.17
2023-03-20T21:44:08.346Z,9.19
2023-03-20T21:52:59.703Z,9.18
2023-03-20T22:03:43.967Z,9.19
2023-03-20T22:09:45.801Z,9.19
2023-03-20T22:15:20.172Z,9.17
2023-03-20T22:35:04.406Z,9.15
2023-03-20T22:45:10.791Z,9.14
2023-03-20T22:47:37.910Z,9.15
2023-03-20T22:50:05.321Z,9.15
2023-03-20T22:52:45.906Z,9.15
2023-03-20T22:55:16.693Z,9.15
2023-03-20T22:57:52.900Z,9.15
2023-03-20T23:00:29.884Z,9.15
2023-03-20T23:03:03.389Z,9.15
2023-03-20T23:05:39.278Z,9.15
2023-03-20T23:08:07.887Z,9.15
2023-03-20T23:10:37.334Z,9.13
2023-03-20T23:13:04.178Z,9.13
2023-03-20T23:15:31.020Z,9.14
2023-03-20T23:17:57.534Z,9.14
2023-03-20T23:20:24.240Z,9.14
2023-03-20T23:22:51.243Z,9.14
2023-03-20T23:25:30.749Z,9.13
2023-03-20T23:28:04.309Z,9.12
2023-03-20T23:30:37.883Z,9.13
2023-03-20T23:33:10.443Z,9.12
2023-03-20T23:35:37.018Z,9.13
2023-03-20T23:38:03.504Z,9.16
2023-03-20T23:40:31.049Z,9.16
2023-03-20T23:42:57.553Z,9.18
2023-03-20T23:45:24.125Z,9.20
2023-03-20T23:47:50.921Z,9.19
2023-03-20T23:50:30.158Z,9.19
2023-03-20T23:53:13.584Z,9.25
2023-03-20T23:55:47.141Z,9.26
2023-03-20T23:58:14.219Z,9.26
